San Ysidro, California
Current Conditions -  °F | °C
As of 2:53 AM on Thursday 18 Dec 2014 (Local Time) from KSDM Reporting Station
Few Clouds Few Clouds  
Wind Chill: 51°   Ceiling: Unl
Heat Index: 51°   Visibility: 9mi
Dew Point: 45°   Wind: 7mph
Humidity: 80%   Direction: 160°SSE
Pressure: 30.13"   Gusts: NA
Location:  32.55°N, 117.04°W
Report Text: KSDM 181053Z AUTO 16006KT 9SM FEW030 11/07 A3013 RMK AO2 SLP202 T01060072 $
Loading
Personal Weather Stations






























Interactive Weather Map New forecast layout! Learn more

10-Day Weather Forecast

Advertisements
Track Severe Weather on mobile